This is the latest recevied weather packets stored in our database for station/object AD8IZ-13. If no packets are shown the sender has not sent any weather packets the latest 10 day(s).
| Time | Temp. | Humidity | Pressure | Rain* | Wind** | Luminosity | Snow |
|---|---|---|---|---|---|---|---|
| 1777518317 | 9.44° C | 97% | 1012.8 hPa | 0 mm | - | 0 W/m² | - |
| 1777517717 | 9.44° C | 96% | 1012.7 hPa | 0 mm | - | 0 W/m² | - |
| 1777517121 | 10° C | 96% | 1012.7 hPa | 0 mm | - | 0 W/m² | - |
| 1777516520 | 10° C | 96% | 1012.8 hPa | 0 mm | - | 0 W/m² | - |
| 1777515917 | 10° C | 95% | 1012.8 hPa | 0 mm | - | 0 W/m² | - |
| 1777515318 | 10.56° C | 95% | 1012.8 hPa | 0 mm | - | 0 W/m² | - |
| 1777514719 | 10.56° C | 94% | 1012.7 hPa | 0 mm | - | 0 W/m² | - |
| 1777514118 | 11.11° C | 94% | 1012.6 hPa | 0 mm | - | 0 W/m² | - |
| 1777513518 | 11.11° C | 93% | 1012.3 hPa | 0 mm | - | 0 W/m² | - |
| 1777512919 | 11.11° C | 92% | 1012.3 hPa | 0 mm | - | 0 W/m² | - |
| 1777511719 | 11.67° C | 91% | 1012.1 hPa | 0 mm | - | 0 W/m² | - |
| 1777511119 | 12.22° C | 91% | 1011.9 hPa | 0 mm | - | 0 W/m² | - |
| 1777510519 | 12.22° C | 93% | 1011.7 hPa | 0 mm | - | 0 W/m² | - |
| 1777509917 | 12.22° C | 95% | 1011.7 hPa | 0 mm | - | 0 W/m² | - |
| 1777509316 | 12.22° C | 95% | 1011.4 hPa | 0 mm | - | 1 W/m² | - |
| 1777508719 | 12.22° C | 94% | 1011.3 hPa | 0 mm | - | 1 W/m² | - |
| 1777507520 | 12.78° C | 92% | 1011 hPa | 0 mm | - | 12 W/m² | - |
| 1777506318 | 13.33° C | 91% | 1010.8 hPa | 0 mm | - | 34 W/m² | - |
| 1777505125 | 13.89° C | 90% | 1010.8 hPa | 1.52 mm | - | 56 W/m² | - |
| 1777493720 | 14.44° C | 92% | 1009.6 hPa | 0 mm | - | 285 W/m² | - |
| 1777491922 | 13.89° C | 95% | 1009.7 hPa | 0 mm | - | 198 W/m² | - |
| 1777491328 | 13.33° C | 96% | 1009.7 hPa | 0 mm | - | 194 W/m² | - |
| 1777488930 | 13.33° C | 97% | 1009.6 hPa | 0.76 mm | - | 119 W/m² | - |
| 1777487729 | 13.33° C | 97% | 1009.7 hPa | 1.02 mm | - | 108 W/m² | - |
| 1777482930 | 13.89° C | 97% | 1009.8 hPa | 1.27 mm | - | 182 W/m² | - |
* Rain latest hour (hover to see other rain measurements)
** Current wind speed in m/s (hover to see current wind gust speed)